createdAt,value
2023-05-14T00:02:10.552Z,101511.64
2023-05-14T00:04:42.779Z,101520.10
2023-05-14T00:07:14.951Z,101520.97
2023-05-14T00:09:47.187Z,101519.02
2023-05-14T00:12:19.336Z,101520.61
2023-05-14T00:14:51.404Z,101520.08
2023-05-14T00:17:23.780Z,101522.23
2023-05-14T00:19:56.127Z,101525.30
2023-05-14T00:22:28.462Z,101529.60
2023-05-14T00:25:00.732Z,101522.88
2023-05-14T00:27:33.102Z,101521.64
2023-05-14T00:30:07.061Z,101509.23
2023-05-14T00:32:39.291Z,101511.27
2023-05-14T00:35:12.272Z,101508.96
2023-05-14T00:37:44.683Z,101505.65
2023-05-14T00:40:17.043Z,101502.61
2023-05-14T00:42:49.330Z,101498.06
2023-05-14T00:45:21.935Z,101486.82
2023-05-14T00:47:54.914Z,101483.21
2023-05-14T00:50:27.491Z,101485.96
2023-05-14T00:52:59.630Z,101485.97
2023-05-14T00:55:33.355Z,101485.66
2023-05-14T00:58:08.962Z,101486.27
2023-05-14T01:00:42.329Z,101488.84
2023-05-14T01:03:14.826Z,101491.20
2023-05-14T01:05:58.946Z,101493.19
2023-05-14T01:08:41.096Z,101489.45
2023-05-14T01:11:21.634Z,101487.10
2023-05-14T01:14:00.209Z,101487.50
2023-05-14T01:16:35.233Z,101490.64
2023-05-14T01:19:11.567Z,101490.48
2023-05-14T01:21:46.360Z,101492.63
2023-05-14T01:24:18.714Z,101489.17
2023-05-14T01:26:51.222Z,101489.97
2023-05-14T01:29:27.406Z,101494.48
2023-05-14T01:32:01.416Z,101488.83
2023-05-14T01:34:34.291Z,101487.31
2023-05-14T01:37:07.915Z,101484.36
2023-05-14T01:39:41.432Z,101486.38
2023-05-14T01:42:14.464Z,101484.33
2023-05-14T01:44:46.801Z,101480.36
2023-05-14T01:47:19.096Z,101482.29
2023-05-14T01:49:51.721Z,101482.76
2023-05-14T01:52:23.829Z,101480.16
2023-05-14T01:54:56.090Z,101475.98
2023-05-14T01:57:28.412Z,101477.31
2023-05-14T02:00:00.580Z,101475.94
2023-05-14T02:02:32.731Z,101473.20
2023-05-14T02:05:07.013Z,101473.96
2023-05-14T02:07:39.627Z,101478.11
2023-05-14T02:10:13.066Z,101474.83
2023-05-14T02:12:45.308Z,101473.98
2023-05-14T02:15:17.434Z,101474.73
2023-05-14T02:17:49.706Z,101470.11
2023-05-14T02:20:22.400Z,101475.02
2023-05-14T02:22:55.207Z,101475.33
2023-05-14T02:25:27.499Z,101475.04
2023-05-14T02:27:59.751Z,101475.49
2023-05-14T02:30:32.547Z,101472.63
2023-05-14T02:33:05.033Z,101467.08
2023-05-14T02:35:37.477Z,101467.73
2023-05-14T02:38:09.654Z,101467.45
2023-05-14T02:40:41.908Z,101473.60
2023-05-14T02:43:14.258Z,101477.55
2023-05-14T02:45:46.618Z,101472.29
2023-05-14T02:48:18.834Z,101474.57
2023-05-14T02:50:52.284Z,101478.27
2023-05-14T02:53:24.607Z,101481.13
2023-05-14T02:55:56.825Z,101478.50
2023-05-14T02:58:29.516Z,101481.29
2023-05-14T03:01:01.652Z,101479.85
2023-05-14T03:03:34.482Z,101482.95
2023-05-14T03:06:07.746Z,101486.54
2023-05-14T03:08:40.162Z,101489.95
2023-05-14T03:11:12.430Z,101491.17
2023-05-14T03:13:44.589Z,101488.89
2023-05-14T03:16:16.924Z,101484.17
2023-05-14T03:18:49.421Z,101486.99
2023-05-14T03:21:21.694Z,101489.11
2023-05-14T03:23:55.093Z,101489.50
2023-05-14T03:26:27.159Z,101488.70
2023-05-14T03:29:00.068Z,101487.30
2023-05-14T03:31:32.634Z,101491.44
2023-05-14T03:34:04.899Z,101499.95
2023-05-14T03:36:39.047Z,101508.77
2023-05-14T03:39:11.201Z,101512.41
2023-05-14T03:41:43.649Z,101521.41
2023-05-14T03:44:16.652Z,101519.92
2023-05-14T03:46:48.844Z,101524.02
2023-05-14T03:49:20.978Z,101526.76
2023-05-14T03:51:53.108Z,101529.73
2023-05-14T03:54:25.299Z,101531.79
2023-05-14T03:56:57.532Z,101533.75
2023-05-14T03:59:30.009Z,101528.02
2023-05-14T04:02:02.184Z,101524.70
2023-05-14T04:04:34.485Z,101522.73
2023-05-14T04:07:07.105Z,101517.15
2023-05-14T04:09:39.302Z,101516.88
2023-05-14T04:12:12.461Z,101517.71
2023-05-14T04:14:44.701Z,101515.67
2023-05-14T04:17:16.954Z,101517.79
2023-05-14T04:19:49.232Z,101519.99
2023-05-14T04:22:21.408Z,101524.37
2023-05-14T04:24:53.813Z,101528.88
2023-05-14T04:27:26.073Z,101533.39
2023-05-14T04:29:58.544Z,101540.14
2023-05-14T04:32:31.115Z,101541.06
2023-05-14T04:35:04.382Z,101541.91
2023-05-14T04:37:36.704Z,101538.48
2023-05-14T04:40:12.722Z,101530.44
2023-05-14T04:42:45.035Z,101526.45
2023-05-14T04:45:17.389Z,101528.48
2023-05-14T04:47:49.611Z,101533.41
2023-05-14T04:50:22.200Z,101525.23
2023-05-14T04:52:56.094Z,101523.48
2023-05-14T04:55:28.394Z,101524.36
2023-05-14T04:58:00.571Z,101519.32
2023-05-14T05:00:33.648Z,101517.30
2023-05-14T05:03:07.285Z,101515.04
2023-05-14T05:05:39.424Z,101506.13
2023-05-14T05:08:12.575Z,101505.88
2023-05-14T05:10:44.854Z,101508.98
2023-05-14T05:13:17.213Z,101505.41
2023-05-14T05:15:49.586Z,101506.67
2023-05-14T05:18:21.861Z,101501.32
2023-05-14T05:20:53.902Z,101501.36
2023-05-14T05:23:26.170Z,101498.30
2023-05-14T05:25:58.423Z,101497.41
2023-05-14T05:28:30.692Z,101498.32
2023-05-14T05:31:03.080Z,101507.27
2023-05-14T05:33:35.413Z,101511.02
2023-05-14T05:36:08.843Z,101514.35
2023-05-14T05:38:40.994Z,101513.77
2023-05-14T05:41:13.303Z,101514.55
2023-05-14T05:43:45.595Z,101515.00
2023-05-14T05:46:17.744Z,101522.73
2023-05-14T05:48:49.942Z,101516.88
2023-05-14T05:51:22.193Z,101514.22
2023-05-14T05:53:54.649Z,101516.98
2023-05-14T05:56:26.863Z,101521.89
2023-05-14T05:58:59.373Z,101523.77
2023-05-14T06:01:31.707Z,101517.61
2023-05-14T06:04:05.800Z,101517.00
2023-05-14T06:06:37.984Z,101522.71
2023-05-14T06:09:10.380Z,101529.09
2023-05-14T06:11:42.626Z,101540.29
2023-05-14T06:14:14.769Z,101538.80
2023-05-14T06:16:47.054Z,101539.67
2023-05-14T06:19:19.463Z,101544.51
2023-05-14T06:21:51.883Z,101538.52
2023-05-14T06:24:24.122Z,101553.13
2023-05-14T06:26:56.276Z,101557.54
2023-05-14T06:29:28.635Z,101555.98
2023-05-14T06:32:04.912Z,101552.14
2023-05-14T06:34:36.918Z,101546.91
2023-05-14T06:37:09.665Z,101546.48
2023-05-14T06:39:48.256Z,101551.45
2023-05-14T06:42:20.516Z,101549.48
2023-05-14T06:44:52.740Z,101546.06
2023-05-14T06:47:25.278Z,101544.50
2023-05-14T06:49:58.879Z,101550.80
2023-05-14T06:52:31.169Z,101552.02
2023-05-14T06:55:03.448Z,101552.45
2023-05-14T06:57:35.576Z,101545.36
2023-05-14T07:00:09.880Z,101540.48
2023-05-14T07:02:42.272Z,101535.33
2023-05-14T07:05:14.850Z,101538.98
2023-05-14T07:07:47.143Z,101540.55
2023-05-14T07:10:19.529Z,101539.81
2023-05-14T07:12:52.117Z,101538.58
2023-05-14T07:15:24.212Z,101545.47
2023-05-14T07:17:56.468Z,101539.64
2023-05-14T07:20:29.023Z,101546.40
2023-05-14T07:23:01.218Z,101537.71
2023-05-14T07:25:33.902Z,101535.69
2023-05-14T07:28:06.463Z,101528.99
2023-05-14T07:30:38.818Z,101526.17
2023-05-14T07:33:11.104Z,101523.50
2023-05-14T07:35:43.394Z,101516.55
2023-05-14T07:38:16.001Z,101512.14
2023-05-14T07:40:48.403Z,101510.84
2023-05-14T07:43:20.578Z,101508.69
2023-05-14T07:45:52.966Z,101513.40
2023-05-14T07:48:25.189Z,101509.67
2023-05-14T07:50:57.714Z,101508.09
2023-05-14T07:53:30.000Z,101508.90
2023-05-14T07:56:02.187Z,101509.83
2023-05-14T07:58:35.289Z,101500.95
2023-05-14T08:01:09.255Z,101499.11
2023-05-14T08:03:41.564Z,101497.36
2023-05-14T08:06:13.825Z,101496.37
2023-05-14T08:08:46.807Z,101495.70
2023-05-14T08:11:19.631Z,101496.67
2023-05-14T08:13:51.786Z,101500.14
2023-05-14T08:16:26.353Z,101495.33
2023-05-14T08:18:58.708Z,101497.98
2023-05-14T08:21:31.725Z,101493.33
2023-05-14T08:24:03.943Z,101490.09
2023-05-14T08:26:36.118Z,101494.36
2023-05-14T08:29:10.450Z,101499.41
2023-05-14T08:31:43.659Z,101499.93
2023-05-14T08:34:16.246Z,101501.73
2023-05-14T08:36:48.635Z,101501.83
2023-05-14T08:39:21.571Z,101495.57
2023-05-14T08:41:54.849Z,101500.45
2023-05-14T08:44:34.185Z,101495.73
2023-05-14T08:47:06.978Z,101493.84
2023-05-14T08:49:43.231Z,101494.55
2023-05-14T08:52:17.458Z,101494.62
2023-05-14T08:54:51.960Z,101485.67
2023-05-14T08:57:26.870Z,101482.40
2023-05-14T08:59:59.813Z,101481.77
2023-05-14T09:02:33.908Z,101471.92
2023-05-14T09:05:07.481Z,101471.86
2023-05-14T09:07:40.057Z,101468.01
2023-05-14T09:10:15.525Z,101472.89
2023-05-14T09:12:47.651Z,101473.56
2023-05-14T09:15:20.061Z,101475.63
2023-05-14T09:17:53.290Z,101475.90
2023-05-14T09:20:26.069Z,101471.00
2023-05-14T09:23:00.145Z,101468.59
2023-05-14T09:25:34.204Z,101464.36
2023-05-14T09:28:11.300Z,101462.05
2023-05-14T09:30:43.572Z,101455.60
2023-05-14T09:33:26.848Z,101457.77
2023-05-14T09:36:01.680Z,101453.35
2023-05-14T09:38:34.811Z,101444.14
2023-05-14T09:41:07.020Z,101443.23
2023-05-14T09:43:39.385Z,101436.42
2023-05-14T09:46:11.709Z,101440.74
2023-05-14T09:48:44.135Z,101442.95
2023-05-14T09:51:17.987Z,101437.98
2023-05-14T09:53:52.239Z,101432.42
2023-05-14T09:56:24.845Z,101437.23
2023-05-14T09:58:57.053Z,101439.44
2023-05-14T10:01:31.302Z,101430.04
2023-05-14T10:04:07.955Z,101431.61
2023-05-14T10:06:42.292Z,101429.94
2023-05-14T10:09:18.076Z,101439.70
2023-05-14T10:11:54.751Z,101437.93
2023-05-14T10:14:30.532Z,101433.49
2023-05-14T10:17:04.521Z,101420.30
2023-05-14T10:19:40.427Z,101429.54
2023-05-14T10:22:16.899Z,101426.12
2023-05-14T10:24:52.463Z,101425.83
2023-05-14T10:27:23.874Z,101420.96
2023-05-14T10:29:57.553Z,101427.11
2023-05-14T10:32:33.252Z,101430.06
2023-05-14T10:35:18.718Z,101435.34
2023-05-14T10:37:53.965Z,101423.98
2023-05-14T10:40:26.593Z,101424.57
2023-05-14T10:43:02.162Z,101421.79
2023-05-14T10:45:34.428Z,101416.72
2023-05-14T10:48:07.497Z,101404.80
2023-05-14T10:50:39.950Z,101405.91
2023-05-14T10:53:14.428Z,101399.52
2023-05-14T10:55:47.438Z,101392.74
2023-05-14T10:58:20.874Z,101387.62
2023-05-14T11:00:58.003Z,101382.60
2023-05-14T11:03:33.801Z,101376.27
2023-05-14T11:06:07.619Z,101369.68
2023-05-14T11:08:40.513Z,101355.48
2023-05-14T11:11:13.839Z,101349.58
2023-05-14T11:13:47.333Z,101348.64
2023-05-14T11:16:23.341Z,101337.58
2023-05-14T11:19:05.504Z,101329.90
2023-05-14T11:21:37.797Z,101323.33
2023-05-14T11:24:10.917Z,101318.16
2023-05-14T11:26:43.422Z,101309.85
2023-05-14T11:29:15.669Z,101313.69
2023-05-14T11:31:48.017Z,101314.29
2023-05-14T11:34:20.244Z,101312.23
2023-05-14T11:36:52.349Z,101314.55
2023-05-14T11:39:24.573Z,101315.31
2023-05-14T11:41:56.916Z,101312.73
2023-05-14T11:44:29.531Z,101311.81
2023-05-14T11:47:02.603Z,101308.48
2023-05-14T11:49:36.120Z,101312.08
2023-05-14T11:52:10.281Z,101305.25
2023-05-14T11:54:43.867Z,101296.45
2023-05-14T11:57:17.802Z,101281.98
2023-05-14T11:59:56.868Z,101283.98
2023-05-14T12:02:30.559Z,101276.36
2023-05-14T12:05:03.438Z,101275.20
2023-05-14T12:07:39.007Z,101275.69
2023-05-14T12:10:10.396Z,101268.08
2023-05-14T12:12:46.202Z,101268.60
2023-05-14T12:15:20.177Z,101266.39
2023-05-14T12:17:55.807Z,101261.02
2023-05-14T12:20:26.516Z,101262.72
2023-05-14T12:22:58.877Z,101254.45
2023-05-14T12:25:32.321Z,101243.57
2023-05-14T12:28:14.569Z,101240.49
2023-05-14T12:30:47.208Z,101240.17
2023-05-14T12:33:22.805Z,101235.64
2023-05-14T12:35:53.770Z,101233.60
2023-05-14T12:38:26.000Z,101229.27
2023-05-14T12:40:58.343Z,101212.44
2023-05-14T12:43:32.458Z,101220.80
2023-05-14T12:46:04.732Z,101212.30
2023-05-14T12:48:37.193Z,101211.89
2023-05-14T12:51:09.513Z,101210.35
2023-05-14T12:53:41.902Z,101220.80
2023-05-14T12:56:15.181Z,101221.70
2023-05-14T12:58:47.874Z,101222.30
2023-05-14T13:01:20.071Z,101216.39
2023-05-14T13:03:52.361Z,101217.68
2023-05-14T13:06:24.658Z,101208.70
2023-05-14T13:09:00.016Z,101199.64
2023-05-14T13:11:32.358Z,101201.97
2023-05-14T13:14:05.064Z,101194.28
2023-05-14T13:16:37.513Z,101194.69
2023-05-14T13:19:09.899Z,101194.05
2023-05-14T13:21:42.367Z,101207.98
2023-05-14T13:24:14.421Z,101206.99
2023-05-14T13:26:46.756Z,101197.02
2023-05-14T13:29:18.980Z,101207.27
2023-05-14T13:31:51.226Z,101207.91
2023-05-14T13:34:23.967Z,101204.57
2023-05-14T13:36:56.160Z,101206.67
2023-05-14T13:39:28.434Z,101202.71
2023-05-14T13:42:01.146Z,101191.44
2023-05-14T13:44:33.337Z,101179.56
2023-05-14T13:47:05.912Z,101161.00
2023-05-14T13:49:38.321Z,101141.80
2023-05-14T13:52:10.773Z,101136.13
2023-05-14T13:54:43.230Z,101138.43
2023-05-14T13:57:15.602Z,101136.20
2023-05-14T13:59:48.965Z,101131.64
2023-05-14T14:02:21.117Z,101129.36
2023-05-14T14:04:53.304Z,101136.45
2023-05-14T14:07:25.568Z,101142.94
2023-05-14T14:09:57.786Z,101148.14
2023-05-14T14:12:30.322Z,101148.15
2023-05-14T14:15:03.836Z,101151.52
2023-05-14T14:17:36.887Z,101156.39
2023-05-14T14:20:10.897Z,101145.32
2023-05-14T14:22:44.211Z,101149.14
2023-05-14T14:25:16.675Z,101148.97
2023-05-14T14:27:49.355Z,101147.39
2023-05-14T14:30:21.779Z,101146.38
2023-05-14T14:32:54.110Z,101145.61
2023-05-14T14:35:26.768Z,101143.37
2023-05-14T14:37:59.292Z,101136.85
2023-05-14T14:40:31.516Z,101133.29
2023-05-14T14:43:03.778Z,101125.41
2023-05-14T14:45:36.296Z,101116.18
2023-05-14T14:48:28.927Z,101112.77
2023-05-14T14:51:02.299Z,101101.84
2023-05-14T14:53:34.950Z,101093.11
2023-05-14T14:56:07.798Z,101087.48
2023-05-14T14:58:40.053Z,101088.20
2023-05-14T15:01:12.321Z,101084.66
2023-05-14T15:03:45.691Z,101085.95
2023-05-14T15:06:17.991Z,101087.77
2023-05-14T15:08:50.139Z,101083.61
2023-05-14T15:11:22.494Z,101091.65
2023-05-14T15:13:55.131Z,101083.99
2023-05-14T15:16:27.415Z,101089.02
2023-05-14T15:18:59.636Z,101092.67
2023-05-14T15:21:32.018Z,101103.16
2023-05-14T15:24:06.256Z,101114.91
2023-05-14T15:26:38.617Z,101116.29
2023-05-14T15:29:10.759Z,101122.88
2023-05-14T15:31:43.095Z,101119.56
2023-05-14T15:34:15.365Z,101122.16
2023-05-14T15:36:47.688Z,101121.96
2023-05-14T15:39:20.119Z,101125.23
2023-05-14T15:41:52.339Z,101130.40
2023-05-14T15:44:24.498Z,101125.91
2023-05-14T15:46:56.814Z,101120.58
2023-05-14T15:49:29.163Z,101114.37
2023-05-14T15:52:03.074Z,101114.75
2023-05-14T15:54:34.889Z,101107.96
2023-05-14T15:57:07.760Z,101101.27
2023-05-14T15:59:40.057Z,101107.16
2023-05-14T16:02:12.369Z,101110.20
2023-05-14T16:04:45.397Z,101114.05
2023-05-14T16:07:17.534Z,101117.27
2023-05-14T16:09:49.799Z,101118.45
2023-05-14T16:12:21.808Z,101124.14
2023-05-14T16:14:54.094Z,101124.87
2023-05-14T16:17:28.003Z,101124.49
2023-05-14T16:20:00.296Z,101124.21
2023-05-14T16:22:34.759Z,101128.66
2023-05-14T16:25:07.711Z,101133.59
2023-05-14T16:27:39.940Z,101130.87
2023-05-14T16:30:13.421Z,101126.52
2023-05-14T16:32:48.639Z,101124.35
2023-05-14T16:35:21.329Z,101115.29
2023-05-14T16:37:54.537Z,101118.30
2023-05-14T16:40:26.831Z,101121.61
2023-05-14T16:42:58.981Z,101112.77
2023-05-14T16:45:32.697Z,101116.99
2023-05-14T16:48:05.104Z,101119.48
2023-05-14T16:50:37.413Z,101124.27
2023-05-14T16:53:09.670Z,101121.90
2023-05-14T16:55:41.967Z,101125.20
2023-05-14T16:58:14.304Z,101124.44
2023-05-14T17:00:46.542Z,101119.22
2023-05-14T17:03:18.925Z,101124.70
2023-05-14T17:05:51.727Z,101128.33
2023-05-14T17:08:23.988Z,101132.17
2023-05-14T17:10:56.347Z,101131.34
2023-05-14T17:13:27.306Z,101124.25
2023-05-14T17:16:17.283Z,101113.19
2023-05-14T17:18:49.152Z,101109.93
2023-05-14T17:21:21.457Z,101110.36
2023-05-14T17:23:53.793Z,101103.33
2023-05-14T17:26:26.552Z,101097.23
2023-05-14T17:28:58.909Z,101090.46
2023-05-14T17:31:31.418Z,101092.96
2023-05-14T17:34:03.637Z,101098.18
2023-05-14T17:36:36.001Z,101099.00
2023-05-14T17:39:08.289Z,101093.25
2023-05-14T17:41:42.122Z,101091.01
2023-05-14T17:44:14.285Z,101093.52
2023-05-14T17:46:46.715Z,101095.29
2023-05-14T17:49:19.203Z,101096.32
2023-05-14T17:51:51.518Z,101096.04
2023-05-14T17:54:23.726Z,101091.39
2023-05-14T17:56:56.296Z,101093.83
2023-05-14T17:59:28.633Z,101097.25
2023-05-14T18:02:01.014Z,101098.80
2023-05-14T18:04:33.160Z,101100.14
2023-05-14T18:07:05.525Z,101095.52
2023-05-14T18:09:37.716Z,101094.41
2023-05-14T18:12:11.554Z,101088.39
2023-05-14T18:14:45.585Z,101087.56
2023-05-14T18:17:18.475Z,101090.23
2023-05-14T18:19:50.673Z,101088.14
2023-05-14T18:22:23.502Z,101091.61
2023-05-14T18:24:57.901Z,101098.54
2023-05-14T18:27:30.187Z,101096.55
2023-05-14T18:30:03.140Z,101100.48
2023-05-14T18:32:35.492Z,101106.08
2023-05-14T18:35:08.555Z,101104.92
2023-05-14T18:37:41.255Z,101111.33
2023-05-14T18:40:17.734Z,101115.36
2023-05-14T18:42:50.834Z,101117.05
2023-05-14T18:45:24.380Z,101117.64
2023-05-14T18:47:57.865Z,101111.08
2023-05-14T18:50:30.750Z,101107.60
2023-05-14T18:53:02.988Z,101107.96
2023-05-14T18:55:36.064Z,101100.80
2023-05-14T18:58:09.232Z,101099.80
2023-05-14T19:00:41.485Z,101095.19
2023-05-14T19:03:14.050Z,101095.30
2023-05-14T19:05:47.178Z,101094.40
2023-05-14T19:08:19.920Z,101090.20
2023-05-14T19:10:53.009Z,101086.92
2023-05-14T19:13:25.322Z,101069.00
2023-05-14T19:15:58.006Z,101066.84
2023-05-14T19:18:30.360Z,101065.30
2023-05-14T19:21:02.885Z,101062.73
2023-05-14T19:23:35.111Z,101063.49
2023-05-14T19:26:07.812Z,101064.05
2023-05-14T19:28:40.166Z,101064.34
2023-05-14T19:31:12.429Z,101057.04
2023-05-14T19:33:44.957Z,101049.93
2023-05-14T19:36:17.110Z,101047.27
2023-05-14T19:38:49.369Z,101041.48
2023-05-14T19:41:21.731Z,101042.64
2023-05-14T19:43:53.769Z,101045.36
2023-05-14T19:46:25.985Z,101050.47
2023-05-14T19:48:58.165Z,101048.31
2023-05-14T19:51:30.656Z,101047.67
2023-05-14T19:54:02.935Z,101048.45
2023-05-14T19:56:35.236Z,101048.75
2023-05-14T19:59:07.666Z,101043.67
2023-05-14T20:01:39.914Z,101042.48
2023-05-14T20:04:14.040Z,101040.23
2023-05-14T20:06:47.241Z,101040.16
2023-05-14T20:09:20.152Z,101039.13
2023-05-14T20:11:52.395Z,101035.61
2023-05-14T20:14:24.588Z,101035.59
2023-05-14T20:16:58.183Z,101035.61
2023-05-14T20:19:31.080Z,101027.39
2023-05-14T20:22:03.360Z,101028.61
2023-05-14T20:24:35.637Z,101029.55
2023-05-14T20:27:10.181Z,101029.24
2023-05-14T20:29:42.370Z,101035.09
2023-05-14T20:32:15.057Z,101039.58
2023-05-14T20:34:47.313Z,101038.23
2023-05-14T20:37:19.880Z,101041.14
2023-05-14T20:39:53.193Z,101038.35
2023-05-14T20:42:25.670Z,101037.27
2023-05-14T20:44:58.275Z,101031.46
2023-05-14T20:47:32.076Z,101030.52
2023-05-14T20:50:04.782Z,101019.06
2023-05-14T20:52:37.087Z,101016.89
2023-05-14T20:55:10.885Z,101024.08
2023-05-14T20:57:43.584Z,101028.97
2023-05-14T21:00:17.867Z,101025.98
2023-05-14T21:02:50.321Z,101017.73
2023-05-14T21:05:23.066Z,101015.02
2023-05-14T21:07:55.813Z,101011.74
2023-05-14T21:10:28.315Z,101008.23
2023-05-14T21:13:00.496Z,101001.98
2023-05-14T21:15:32.845Z,100991.73
2023-05-14T21:18:05.215Z,100995.48
2023-05-14T21:20:37.398Z,100990.41
2023-05-14T21:23:09.846Z,100989.33
2023-05-14T21:25:41.920Z,100981.13
2023-05-14T21:28:14.165Z,100979.45
2023-05-14T21:30:46.373Z,100975.05
2023-05-14T21:33:18.986Z,100965.33
2023-05-14T21:35:51.145Z,100963.95
2023-05-14T21:38:23.558Z,100964.88
2023-05-14T21:40:55.669Z,100969.74
2023-05-14T21:43:27.874Z,100969.94
2023-05-14T21:46:00.218Z,100964.85
2023-05-14T21:48:32.496Z,100967.77
2023-05-14T21:51:06.471Z,100958.58
2023-05-14T21:53:38.499Z,100952.39
2023-05-14T21:56:10.909Z,100941.62
2023-05-14T21:58:43.148Z,100931.97
2023-05-14T22:01:15.545Z,100918.55
2023-05-14T22:03:47.903Z,100915.83
2023-05-14T22:06:20.272Z,100918.05
2023-05-14T22:08:52.569Z,100918.61
2023-05-14T22:11:24.697Z,100919.10
2023-05-14T22:13:56.932Z,100922.54
2023-05-14T22:16:29.274Z,100924.98
2023-05-14T22:19:01.482Z,100925.11
2023-05-14T22:21:33.994Z,100919.44
2023-05-14T22:24:07.190Z,100914.10
2023-05-14T22:26:39.504Z,100909.04
2023-05-14T22:29:11.778Z,100908.83
2023-05-14T22:31:44.362Z,100908.33
2023-05-14T22:34:16.685Z,100899.15
2023-05-14T22:36:48.987Z,100901.70
2023-05-14T22:39:21.146Z,100907.75
2023-05-14T22:41:55.253Z,100907.18
2023-05-14T22:44:29.888Z,100909.28
2023-05-14T22:47:02.528Z,100901.34
2023-05-14T22:49:34.773Z,100892.29
2023-05-14T22:52:08.076Z,100890.46
2023-05-14T22:54:40.352Z,100887.56
2023-05-14T22:57:12.575Z,100884.77
2023-05-14T22:59:44.736Z,100888.67
2023-05-14T23:02:17.082Z,100889.90
2023-05-14T23:04:49.576Z,100889.11
2023-05-14T23:07:21.929Z,100890.32
2023-05-14T23:09:54.192Z,100892.92
2023-05-14T23:12:26.458Z,100892.66
2023-05-14T23:14:59.283Z,100896.02
2023-05-14T23:17:31.463Z,100892.27
2023-05-14T23:20:06.146Z,100896.48
2023-05-14T23:22:38.343Z,100886.52
2023-05-14T23:25:11.700Z,100886.92
2023-05-14T23:27:44.061Z,100886.81
2023-05-14T23:30:16.823Z,100884.19
2023-05-14T23:32:49.202Z,100878.17
2023-05-14T23:35:21.754Z,100877.96
2023-05-14T23:37:55.487Z,100886.80
2023-05-14T23:40:27.927Z,100885.17
2023-05-14T23:43:00.635Z,100879.53
2023-05-14T23:45:32.941Z,100884.77
2023-05-14T23:48:05.573Z,100879.31
2023-05-14T23:50:38.229Z,100867.62
2023-05-14T23:53:10.469Z,100859.64
2023-05-14T23:55:42.768Z,100854.16
2023-05-14T23:58:15.042Z,100855.89
